sensor_id;sensor_type;location;lat;lon;timestamp;P1;durP1;ratioP1;P2;durP2;ratioP2
71080;SDS011;58740;50.672;18.690;2023-05-16T00:01:45;13.80;;;8.70;;
71080;SDS011;58740;50.672;18.690;2023-05-16T00:04:13;13.60;;;8.30;;
71080;SDS011;58740;50.672;18.690;2023-05-16T00:06:41;14.90;;;8.00;;
71080;SDS011;58740;50.672;18.690;2023-05-16T00:09:08;13.00;;;7.40;;
71080;SDS011;58740;50.672;18.690;2023-05-16T00:11:36;11.50;;;6.70;;
71080;SDS011;58740;50.672;18.690;2023-05-16T00:14:04;12.00;;;7.80;;
71080;SDS011;58740;50.672;18.690;2023-05-16T00:16:32;11.90;;;7.50;;
71080;SDS011;58740;50.672;18.690;2023-05-16T00:18:59;12.70;;;8.00;;
71080;SDS011;58740;50.672;18.690;2023-05-16T00:21:29;11.50;;;7.50;;
71080;SDS011;58740;50.672;18.690;2023-05-16T00:23:57;12.90;;;8.50;;
71080;SDS011;58740;50.672;18.690;2023-05-16T00:26:25;13.70;;;10.10;;
71080;SDS011;58740;50.672;18.690;2023-05-16T00:28:53;12.90;;;8.40;;
71080;SDS011;58740;50.672;18.690;2023-05-16T00:31:21;13.20;;;8.60;;
71080;SDS011;58740;50.672;18.690;2023-05-16T00:33:49;14.20;;;8.70;;
71080;SDS011;58740;50.672;18.690;2023-05-16T00:36:16;13.30;;;8.50;;
71080;SDS011;58740;50.672;18.690;2023-05-16T00:38:44;13.50;;;8.40;;
71080;SDS011;58740;50.672;18.690;2023-05-16T00:41:12;11.40;;;7.60;;
71080;SDS011;58740;50.672;18.690;2023-05-16T00:43:40;14.90;;;8.40;;
71080;SDS011;58740;50.672;18.690;2023-05-16T00:46:07;14.60;;;8.30;;
71080;SDS011;58740;50.672;18.690;2023-05-16T00:48:35;14.10;;;9.10;;
71080;SDS011;58740;50.672;18.690;2023-05-16T00:51:03;13.20;;;9.40;;
71080;SDS011;58740;50.672;18.690;2023-05-16T00:53:35;16.20;;;8.40;;
71080;SDS011;58740;50.672;18.690;2023-05-16T00:56:04;13.60;;;9.20;;
71080;SDS011;58740;50.672;18.690;2023-05-16T00:58:33;13.30;;;8.50;;
71080;SDS011;58740;50.672;18.690;2023-05-16T01:01:02;12.40;;;8.00;;
71080;SDS011;58740;50.672;18.690;2023-05-16T01:03:31;13.70;;;8.60;;
71080;SDS011;58740;50.672;18.690;2023-05-16T01:05:59;13.60;;;8.70;;
71080;SDS011;58740;50.672;18.690;2023-05-16T01:08:27;15.80;;;8.80;;
71080;SDS011;58740;50.672;18.690;2023-05-16T01:11:24;14.70;;;8.20;;
71080;SDS011;58740;50.672;18.690;2023-05-16T01:14:22;13.60;;;8.80;;
71080;SDS011;58740;50.672;18.690;2023-05-16T01:17:07;12.10;;;8.00;;
71080;SDS011;58740;50.672;18.690;2023-05-16T01:19:59;13.60;;;8.40;;
71080;SDS011;58740;50.672;18.690;2023-05-16T01:22:49;13.40;;;8.30;;
71080;SDS011;58740;50.672;18.690;2023-05-16T01:25:52;14.20;;;8.80;;
71080;SDS011;58740;50.672;18.690;2023-05-16T01:28:24;12.80;;;8.40;;
71080;SDS011;58740;50.672;18.690;2023-05-16T01:30:53;14.20;;;8.90;;
71080;SDS011;58740;50.672;18.690;2023-05-16T01:33:21;12.80;;;8.70;;
71080;SDS011;58740;50.672;18.690;2023-05-16T01:36:18;14.90;;;8.70;;
71080;SDS011;58740;50.672;18.690;2023-05-16T01:42:06;12.80;;;8.50;;
71080;SDS011;58740;50.672;18.690;2023-05-16T01:47:15;13.90;;;8.10;;
71080;SDS011;58740;50.672;18.690;2023-05-16T01:50:00;16.30;;;9.00;;
71080;SDS011;58740;50.672;18.690;2023-05-16T01:52:47;13.10;;;9.20;;
71080;SDS011;58740;50.672;18.690;2023-05-16T01:55:44;14.10;;;9.00;;
71080;SDS011;58740;50.672;18.690;2023-05-16T01:58:15;15.50;;;10.20;;
71080;SDS011;58740;50.672;18.690;2023-05-16T02:00:45;16.00;;;10.30;;
71080;SDS011;58740;50.672;18.690;2023-05-16T02:03:13;17.80;;;10.20;;
71080;SDS011;58740;50.672;18.690;2023-05-16T02:05:41;13.70;;;9.30;;
71080;SDS011;58740;50.672;18.690;2023-05-16T02:08:09;15.20;;;10.30;;
71080;SDS011;58740;50.672;18.690;2023-05-16T02:10:37;18.00;;;9.70;;
71080;SDS011;58740;50.672;18.690;2023-05-16T02:13:06;14.90;;;9.20;;
71080;SDS011;58740;50.672;18.690;2023-05-16T02:15:34;15.60;;;8.60;;
71080;SDS011;58740;50.672;18.690;2023-05-16T02:18:02;12.40;;;7.90;;
71080;SDS011;58740;50.672;18.690;2023-05-16T02:20:30;14.40;;;8.60;;
71080;SDS011;58740;50.672;18.690;2023-05-16T02:22:57;15.60;;;9.10;;
71080;SDS011;58740;50.672;18.690;2023-05-16T02:25:25;15.10;;;8.30;;
71080;SDS011;58740;50.672;18.690;2023-05-16T02:27:53;11.20;;;7.60;;
71080;SDS011;58740;50.672;18.690;2023-05-16T02:30:21;14.10;;;8.50;;
71080;SDS011;58740;50.672;18.690;2023-05-16T02:32:49;13.40;;;9.00;;
71080;SDS011;58740;50.672;18.690;2023-05-16T02:35:17;14.00;;;8.40;;
71080;SDS011;58740;50.672;18.690;2023-05-16T02:37:45;12.40;;;8.10;;
71080;SDS011;58740;50.672;18.690;2023-05-16T02:40:13;12.70;;;8.60;;
71080;SDS011;58740;50.672;18.690;2023-05-16T02:42:41;15.10;;;9.80;;
71080;SDS011;58740;50.672;18.690;2023-05-16T02:45:09;13.80;;;9.10;;
71080;SDS011;58740;50.672;18.690;2023-05-16T02:47:37;13.30;;;8.10;;
71080;SDS011;58740;50.672;18.690;2023-05-16T02:50:05;13.90;;;8.40;;
71080;SDS011;58740;50.672;18.690;2023-05-16T02:52:33;15.60;;;9.50;;
71080;SDS011;58740;50.672;18.690;2023-05-16T02:55:00;14.10;;;8.40;;
71080;SDS011;58740;50.672;18.690;2023-05-16T02:57:48;14.00;;;9.00;;
71080;SDS011;58740;50.672;18.690;2023-05-16T03:00:17;13.00;;;8.50;;
71080;SDS011;58740;50.672;18.690;2023-05-16T03:02:46;13.40;;;8.50;;
71080;SDS011;58740;50.672;18.690;2023-05-16T03:05:13;15.80;;;9.00;;
71080;SDS011;58740;50.672;18.690;2023-05-16T03:07:41;13.20;;;8.60;;
71080;SDS011;58740;50.672;18.690;2023-05-16T03:10:09;13.50;;;9.30;;
71080;SDS011;58740;50.672;18.690;2023-05-16T03:12:37;13.60;;;9.00;;
71080;SDS011;58740;50.672;18.690;2023-05-16T03:15:05;15.00;;;9.30;;
71080;SDS011;58740;50.672;18.690;2023-05-16T03:17:35;13.50;;;8.20;;
71080;SDS011;58740;50.672;18.690;2023-05-16T03:20:03;14.50;;;9.40;;
71080;SDS011;58740;50.672;18.690;2023-05-16T03:22:35;18.10;;;10.50;;
71080;SDS011;58740;50.672;18.690;2023-05-16T03:25:03;13.40;;;8.60;;
71080;SDS011;58740;50.672;18.690;2023-05-16T03:27:31;14.70;;;8.90;;
71080;SDS011;58740;50.672;18.690;2023-05-16T03:29:59;12.40;;;8.30;;
71080;SDS011;58740;50.672;18.690;2023-05-16T03:32:27;12.90;;;8.40;;
71080;SDS011;58740;50.672;18.690;2023-05-16T03:34:54;14.50;;;8.90;;
71080;SDS011;58740;50.672;18.690;2023-05-16T03:37:22;13.90;;;9.00;;
71080;SDS011;58740;50.672;18.690;2023-05-16T03:39:50;14.10;;;9.30;;
71080;SDS011;58740;50.672;18.690;2023-05-16T03:42:17;14.10;;;9.00;;
71080;SDS011;58740;50.672;18.690;2023-05-16T03:44:45;13.60;;;8.90;;
71080;SDS011;58740;50.672;18.690;2023-05-16T03:47:13;13.90;;;9.40;;
71080;SDS011;58740;50.672;18.690;2023-05-16T03:49:41;13.40;;;10.20;;
71080;SDS011;58740;50.672;18.690;2023-05-16T03:52:09;15.20;;;9.50;;
71080;SDS011;58740;50.672;18.690;2023-05-16T03:54:36;14.40;;;9.00;;
71080;SDS011;58740;50.672;18.690;2023-05-16T03:57:05;14.50;;;10.30;;
71080;SDS011;58740;50.672;18.690;2023-05-16T03:59:32;15.40;;;9.70;;
71080;SDS011;58740;50.672;18.690;2023-05-16T04:02:01;16.10;;;10.30;;
71080;SDS011;58740;50.672;18.690;2023-05-16T04:04:28;14.70;;;9.90;;
71080;SDS011;58740;50.672;18.690;2023-05-16T04:06:56;16.10;;;10.50;;
71080;SDS011;58740;50.672;18.690;2023-05-16T04:09:24;14.00;;;9.70;;
71080;SDS011;58740;50.672;18.690;2023-05-16T04:11:52;13.40;;;9.80;;
71080;SDS011;58740;50.672;18.690;2023-05-16T04:14:22;14.50;;;10.00;;
71080;SDS011;58740;50.672;18.690;2023-05-16T04:16:50;11.40;;;8.10;;
71080;SDS011;58740;50.672;18.690;2023-05-16T04:19:18;16.40;;;9.30;;
71080;SDS011;58740;50.672;18.690;2023-05-16T04:21:47;13.20;;;8.70;;
71080;SDS011;58740;50.672;18.690;2023-05-16T04:24:14;12.80;;;9.00;;
71080;SDS011;58740;50.672;18.690;2023-05-16T04:26:43;12.30;;;8.10;;
71080;SDS011;58740;50.672;18.690;2023-05-16T04:29:11;15.20;;;8.50;;
71080;SDS011;58740;50.672;18.690;2023-05-16T04:31:41;15.30;;;9.00;;
71080;SDS011;58740;50.672;18.690;2023-05-16T04:34:08;13.30;;;8.80;;
71080;SDS011;58740;50.672;18.690;2023-05-16T04:36:36;12.90;;;7.90;;
71080;SDS011;58740;50.672;18.690;2023-05-16T04:39:04;13.20;;;8.80;;
71080;SDS011;58740;50.672;18.690;2023-05-16T04:41:33;11.90;;;7.30;;
71080;SDS011;58740;50.672;18.690;2023-05-16T04:44:02;13.00;;;9.60;;
71080;SDS011;58740;50.672;18.690;2023-05-16T04:46:31;14.10;;;10.90;;
71080;SDS011;58740;50.672;18.690;2023-05-16T04:48:58;20.90;;;14.10;;
71080;SDS011;58740;50.672;18.690;2023-05-16T04:51:26;20.40;;;14.00;;
71080;SDS011;58740;50.672;18.690;2023-05-16T04:53:54;19.90;;;15.00;;
71080;SDS011;58740;50.672;18.690;2023-05-16T04:56:22;19.00;;;12.80;;
71080;SDS011;58740;50.672;18.690;2023-05-16T04:58:50;15.70;;;11.10;;
71080;SDS011;58740;50.672;18.690;2023-05-16T05:01:17;16.80;;;11.30;;
71080;SDS011;58740;50.672;18.690;2023-05-16T05:03:45;13.70;;;9.60;;
71080;SDS011;58740;50.672;18.690;2023-05-16T05:06:15;12.30;;;8.80;;
71080;SDS011;58740;50.672;18.690;2023-05-16T05:08:42;13.00;;;8.10;;
71080;SDS011;58740;50.672;18.690;2023-05-16T05:11:10;13.30;;;8.50;;
71080;SDS011;58740;50.672;18.690;2023-05-16T05:13:38;13.10;;;9.10;;
71080;SDS011;58740;50.672;18.690;2023-05-16T05:16:06;11.30;;;8.00;;
71080;SDS011;58740;50.672;18.690;2023-05-16T05:18:33;11.40;;;8.50;;
71080;SDS011;58740;50.672;18.690;2023-05-16T05:21:01;12.80;;;7.40;;
71080;SDS011;58740;50.672;18.690;2023-05-16T05:23:29;11.80;;;8.20;;
71080;SDS011;58740;50.672;18.690;2023-05-16T05:25:57;12.20;;;7.90;;
71080;SDS011;58740;50.672;18.690;2023-05-16T05:28:25;11.60;;;8.50;;
71080;SDS011;58740;50.672;18.690;2023-05-16T05:30:53;12.90;;;8.50;;
71080;SDS011;58740;50.672;18.690;2023-05-16T05:33:25;11.70;;;8.30;;
71080;SDS011;58740;50.672;18.690;2023-05-16T05:35:56;12.30;;;7.90;;
71080;SDS011;58740;50.672;18.690;2023-05-16T05:38:24;11.90;;;7.60;;
71080;SDS011;58740;50.672;18.690;2023-05-16T05:40:52;13.70;;;8.30;;
71080;SDS011;58740;50.672;18.690;2023-05-16T05:43:20;10.80;;;7.80;;
71080;SDS011;58740;50.672;18.690;2023-05-16T05:45:48;11.20;;;7.10;;
71080;SDS011;58740;50.672;18.690;2023-05-16T05:48:16;11.60;;;8.10;;
71080;SDS011;58740;50.672;18.690;2023-05-16T05:50:43;12.60;;;8.00;;
71080;SDS011;58740;50.672;18.690;2023-05-16T05:53:11;12.90;;;7.80;;
71080;SDS011;58740;50.672;18.690;2023-05-16T05:55:39;12.50;;;7.90;;
71080;SDS011;58740;50.672;18.690;2023-05-16T05:58:08;11.90;;;7.80;;
71080;SDS011;58740;50.672;18.690;2023-05-16T06:00:36;10.80;;;7.70;;
71080;SDS011;58740;50.672;18.690;2023-05-16T06:03:03;9.90;;;7.50;;
71080;SDS011;58740;50.672;18.690;2023-05-16T06:05:31;9.70;;;6.80;;
71080;SDS011;58740;50.672;18.690;2023-05-16T06:07:59;10.00;;;7.60;;
71080;SDS011;58740;50.672;18.690;2023-05-16T06:10:27;12.20;;;7.50;;
71080;SDS011;58740;50.672;18.690;2023-05-16T06:12:54;13.00;;;7.40;;
71080;SDS011;58740;50.672;18.690;2023-05-16T06:15:22;12.50;;;8.80;;
71080;SDS011;58740;50.672;18.690;2023-05-16T06:17:49;10.80;;;8.30;;
71080;SDS011;58740;50.672;18.690;2023-05-16T06:20:17;11.00;;;7.90;;
71080;SDS011;58740;50.672;18.690;2023-05-16T06:22:45;12.50;;;7.90;;
71080;SDS011;58740;50.672;18.690;2023-05-16T06:25:13;12.60;;;8.80;;
71080;SDS011;58740;50.672;18.690;2023-05-16T06:27:40;13.40;;;8.90;;
71080;SDS011;58740;50.672;18.690;2023-05-16T06:30:09;11.80;;;8.10;;
71080;SDS011;58740;50.672;18.690;2023-05-16T06:32:37;13.30;;;9.10;;
71080;SDS011;58740;50.672;18.690;2023-05-16T06:35:07;13.00;;;8.60;;
71080;SDS011;58740;50.672;18.690;2023-05-16T06:37:36;11.50;;;7.60;;
71080;SDS011;58740;50.672;18.690;2023-05-16T06:40:04;13.10;;;8.70;;
71080;SDS011;58740;50.672;18.690;2023-05-16T06:42:32;11.60;;;8.60;;
71080;SDS011;58740;50.672;18.690;2023-05-16T06:45:00;11.90;;;7.60;;
71080;SDS011;58740;50.672;18.690;2023-05-16T06:47:28;10.70;;;7.80;;
71080;SDS011;58740;50.672;18.690;2023-05-16T06:49:56;11.10;;;7.90;;
71080;SDS011;58740;50.672;18.690;2023-05-16T06:52:23;10.30;;;7.70;;
71080;SDS011;58740;50.672;18.690;2023-05-16T06:54:51;11.10;;;7.60;;
71080;SDS011;58740;50.672;18.690;2023-05-16T06:57:19;10.40;;;7.90;;
71080;SDS011;58740;50.672;18.690;2023-05-16T06:59:47;11.30;;;8.20;;
71080;SDS011;58740;50.672;18.690;2023-05-16T07:02:14;12.90;;;7.80;;
71080;SDS011;58740;50.672;18.690;2023-05-16T07:04:42;11.30;;;7.60;;
71080;SDS011;58740;50.672;18.690;2023-05-16T07:07:10;11.60;;;7.90;;
71080;SDS011;58740;50.672;18.690;2023-05-16T07:09:38;11.50;;;8.60;;
71080;SDS011;58740;50.672;18.690;2023-05-16T07:12:06;10.40;;;7.50;;
71080;SDS011;58740;50.672;18.690;2023-05-16T07:14:34;9.40;;;7.40;;
71080;SDS011;58740;50.672;18.690;2023-05-16T07:17:02;10.00;;;6.80;;
71080;SDS011;58740;50.672;18.690;2023-05-16T07:19:30;11.10;;;6.80;;
71080;SDS011;58740;50.672;18.690;2023-05-16T07:21:58;10.30;;;7.60;;
71080;SDS011;58740;50.672;18.690;2023-05-16T07:24:25;11.50;;;6.80;;
71080;SDS011;58740;50.672;18.690;2023-05-16T07:26:53;10.20;;;7.70;;
71080;SDS011;58740;50.672;18.690;2023-05-16T07:29:21;13.70;;;7.70;;
71080;SDS011;58740;50.672;18.690;2023-05-16T07:31:49;9.40;;;6.50;;
71080;SDS011;58740;50.672;18.690;2023-05-16T07:34:17;9.90;;;6.70;;
71080;SDS011;58740;50.672;18.690;2023-05-16T07:36:45;11.40;;;6.90;;
71080;SDS011;58740;50.672;18.690;2023-05-16T07:39:12;9.70;;;7.40;;
71080;SDS011;58740;50.672;18.690;2023-05-16T07:41:41;10.70;;;7.50;;
71080;SDS011;58740;50.672;18.690;2023-05-16T07:44:09;10.20;;;7.50;;
71080;SDS011;58740;50.672;18.690;2023-05-16T07:46:36;9.20;;;6.70;;
71080;SDS011;58740;50.672;18.690;2023-05-16T07:49:04;10.40;;;7.10;;
71080;SDS011;58740;50.672;18.690;2023-05-16T07:51:32;8.40;;;6.50;;
71080;SDS011;58740;50.672;18.690;2023-05-16T07:54:00;10.00;;;7.60;;
71080;SDS011;58740;50.672;18.690;2023-05-16T07:56:28;12.90;;;7.20;;
71080;SDS011;58740;50.672;18.690;2023-05-16T07:58:55;9.60;;;6.90;;
71080;SDS011;58740;50.672;18.690;2023-05-16T08:01:23;9.10;;;6.50;;
71080;SDS011;58740;50.672;18.690;2023-05-16T08:03:51;9.40;;;6.70;;
71080;SDS011;58740;50.672;18.690;2023-05-16T08:06:20;9.90;;;7.30;;
71080;SDS011;58740;50.672;18.690;2023-05-16T08:08:47;9.40;;;6.30;;
71080;SDS011;58740;50.672;18.690;2023-05-16T08:11:15;10.60;;;6.30;;
71080;SDS011;58740;50.672;18.690;2023-05-16T08:13:43;9.40;;;6.90;;
71080;SDS011;58740;50.672;18.690;2023-05-16T08:16:11;11.00;;;7.30;;
71080;SDS011;58740;50.672;18.690;2023-05-16T08:18:39;10.10;;;6.70;;
71080;SDS011;58740;50.672;18.690;2023-05-16T08:21:07;10.00;;;6.50;;
71080;SDS011;58740;50.672;18.690;2023-05-16T08:23:37;9.50;;;6.90;;
71080;SDS011;58740;50.672;18.690;2023-05-16T08:26:05;11.40;;;6.70;;
71080;SDS011;58740;50.672;18.690;2023-05-16T08:28:33;9.60;;;6.40;;
71080;SDS011;58740;50.672;18.690;2023-05-16T08:31:01;9.40;;;6.30;;
71080;SDS011;58740;50.672;18.690;2023-05-16T08:33:29;10.30;;;6.70;;
71080;SDS011;58740;50.672;18.690;2023-05-16T08:35:57;9.30;;;6.70;;
71080;SDS011;58740;50.672;18.690;2023-05-16T08:38:27;11.90;;;6.70;;
71080;SDS011;58740;50.672;18.690;2023-05-16T08:40:55;10.90;;;6.80;;
71080;SDS011;58740;50.672;18.690;2023-05-16T08:43:23;11.50;;;7.20;;
71080;SDS011;58740;50.672;18.690;2023-05-16T08:45:50;9.90;;;6.80;;
71080;SDS011;58740;50.672;18.690;2023-05-16T08:48:22;12.40;;;7.30;;
71080;SDS011;58740;50.672;18.690;2023-05-16T08:50:50;10.40;;;6.20;;
71080;SDS011;58740;50.672;18.690;2023-05-16T08:53:26;8.60;;;6.20;;
71080;SDS011;58740;50.672;18.690;2023-05-16T08:56:00;8.40;;;5.80;;
71080;SDS011;58740;50.672;18.690;2023-05-16T08:58:29;8.50;;;5.50;;
71080;SDS011;58740;50.672;18.690;2023-05-16T09:00:57;7.60;;;4.70;;
71080;SDS011;58740;50.672;18.690;2023-05-16T09:03:25;10.00;;;5.40;;
71080;SDS011;58740;50.672;18.690;2023-05-16T09:05:55;9.50;;;5.50;;
71080;SDS011;58740;50.672;18.690;2023-05-16T09:08:24;9.10;;;5.50;;
71080;SDS011;58740;50.672;18.690;2023-05-16T09:10:52;9.40;;;5.10;;
71080;SDS011;58740;50.672;18.690;2023-05-16T09:13:21;7.60;;;4.40;;
71080;SDS011;58740;50.672;18.690;2023-05-16T09:16:08;9.40;;;5.10;;
71080;SDS011;58740;50.672;18.690;2023-05-16T09:18:38;8.20;;;5.30;;
71080;SDS011;58740;50.672;18.690;2023-05-16T09:21:08;8.20;;;5.20;;
71080;SDS011;58740;50.672;18.690;2023-05-16T09:23:37;8.50;;;4.80;;
71080;SDS011;58740;50.672;18.690;2023-05-16T09:26:05;7.00;;;4.50;;
71080;SDS011;58740;50.672;18.690;2023-05-16T09:28:37;10.80;;;5.70;;
71080;SDS011;58740;50.672;18.690;2023-05-16T09:31:23;9.60;;;5.90;;
71080;SDS011;58740;50.672;18.690;2023-05-16T09:33:57;6.30;;;4.50;;
71080;SDS011;58740;50.672;18.690;2023-05-16T09:36:25;8.30;;;5.10;;
71080;SDS011;58740;50.672;18.690;2023-05-16T09:38:55;8.10;;;4.70;;
71080;SDS011;58740;50.672;18.690;2023-05-16T09:41:23;9.50;;;5.70;;
71080;SDS011;58740;50.672;18.690;2023-05-16T09:43:50;7.90;;;5.20;;
71080;SDS011;58740;50.672;18.690;2023-05-16T09:46:24;8.00;;;5.60;;
71080;SDS011;58740;50.672;18.690;2023-05-16T09:48:54;7.00;;;4.40;;
71080;SDS011;58740;50.672;18.690;2023-05-16T09:51:22;8.10;;;4.80;;
71080;SDS011;58740;50.672;18.690;2023-05-16T09:53:50;7.70;;;4.60;;
71080;SDS011;58740;50.672;18.690;2023-05-16T09:56:18;10.40;;;5.40;;
71080;SDS011;58740;50.672;18.690;2023-05-16T09:58:46;9.50;;;5.80;;
71080;SDS011;58740;50.672;18.690;2023-05-16T10:01:14;7.40;;;5.00;;
71080;SDS011;58740;50.672;18.690;2023-05-16T10:03:42;6.90;;;4.40;;
71080;SDS011;58740;50.672;18.690;2023-05-16T10:06:10;6.80;;;4.60;;
71080;SDS011;58740;50.672;18.690;2023-05-16T10:08:41;6.90;;;4.90;;
71080;SDS011;58740;50.672;18.690;2023-05-16T10:11:10;7.60;;;4.80;;
71080;SDS011;58740;50.672;18.690;2023-05-16T10:13:39;8.40;;;5.40;;
71080;SDS011;58740;50.672;18.690;2023-05-16T10:16:10;7.20;;;4.90;;
71080;SDS011;58740;50.672;18.690;2023-05-16T10:18:39;6.70;;;4.60;;
71080;SDS011;58740;50.672;18.690;2023-05-16T10:21:13;8.40;;;4.30;;
71080;SDS011;58740;50.672;18.690;2023-05-16T10:23:47;9.10;;;4.90;;
71080;SDS011;58740;50.672;18.690;2023-05-16T10:26:19;8.00;;;5.10;;
71080;SDS011;58740;50.672;18.690;2023-05-16T10:28:49;7.80;;;4.70;;
71080;SDS011;58740;50.672;18.690;2023-05-16T10:31:17;7.80;;;4.40;;
71080;SDS011;58740;50.672;18.690;2023-05-16T10:33:46;7.30;;;4.40;;
71080;SDS011;58740;50.672;18.690;2023-05-16T10:36:15;7.40;;;4.10;;
71080;SDS011;58740;50.672;18.690;2023-05-16T10:38:43;6.10;;;3.50;;
71080;SDS011;58740;50.672;18.690;2023-05-16T10:41:13;6.20;;;4.40;;
71080;SDS011;58740;50.672;18.690;2023-05-16T10:43:44;6.40;;;4.10;;
71080;SDS011;58740;50.672;18.690;2023-05-16T10:46:22;6.60;;;3.30;;
71080;SDS011;58740;50.672;18.690;2023-05-16T10:48:51;7.60;;;4.10;;
71080;SDS011;58740;50.672;18.690;2023-05-16T10:53:50;6.40;;;2.90;;
71080;SDS011;58740;50.672;18.690;2023-05-16T10:56:24;4.90;;;2.80;;
71080;SDS011;58740;50.672;18.690;2023-05-16T10:58:53;4.80;;;2.90;;
71080;SDS011;58740;50.672;18.690;2023-05-16T11:01:29;7.00;;;3.80;;
71080;SDS011;58740;50.672;18.690;2023-05-16T11:03:59;5.30;;;3.80;;
71080;SDS011;58740;50.672;18.690;2023-05-16T11:06:44;6.50;;;3.70;;
71080;SDS011;58740;50.672;18.690;2023-05-16T11:17:21;6.70;;;3.00;;
71080;SDS011;58740;50.672;18.690;2023-05-16T11:19:59;6.10;;;3.40;;
71080;SDS011;58740;50.672;18.690;2023-05-16T11:22:28;5.30;;;3.00;;
71080;SDS011;58740;50.672;18.690;2023-05-16T11:25:07;5.90;;;3.40;;
71080;SDS011;58740;50.672;18.690;2023-05-16T11:27:46;4.60;;;3.00;;
71080;SDS011;58740;50.672;18.690;2023-05-16T11:30:16;6.10;;;3.00;;
71080;SDS011;58740;50.672;18.690;2023-05-16T11:32:46;4.60;;;2.90;;
71080;SDS011;58740;50.672;18.690;2023-05-16T11:35:16;6.10;;;2.90;;
71080;SDS011;58740;50.672;18.690;2023-05-16T11:37:46;5.70;;;3.10;;
71080;SDS011;58740;50.672;18.690;2023-05-16T11:40:14;5.30;;;2.60;;
71080;SDS011;58740;50.672;18.690;2023-05-16T11:42:45;5.30;;;2.70;;
71080;SDS011;58740;50.672;18.690;2023-05-16T11:45:16;4.90;;;2.90;;
71080;SDS011;58740;50.672;18.690;2023-05-16T11:47:46;7.40;;;3.00;;
71080;SDS011;58740;50.672;18.690;2023-05-16T11:50:18;5.30;;;3.20;;
71080;SDS011;58740;50.672;18.690;2023-05-16T11:52:50;5.60;;;2.70;;
71080;SDS011;58740;50.672;18.690;2023-05-16T11:55:25;6.00;;;2.70;;
71080;SDS011;58740;50.672;18.690;2023-05-16T11:58:08;4.90;;;2.50;;
71080;SDS011;58740;50.672;18.690;2023-05-16T12:00:47;5.50;;;2.40;;
71080;SDS011;58740;50.672;18.690;2023-05-16T12:03:17;6.20;;;2.80;;
71080;SDS011;58740;50.672;18.690;2023-05-16T12:05:51;5.80;;;3.20;;
71080;SDS011;58740;50.672;18.690;2023-05-16T12:08:20;5.80;;;2.80;;
71080;SDS011;58740;50.672;18.690;2023-05-16T12:10:50;5.30;;;3.00;;
71080;SDS011;58740;50.672;18.690;2023-05-16T12:13:21;5.20;;;2.70;;
71080;SDS011;58740;50.672;18.690;2023-05-16T12:15:51;5.80;;;3.40;;
71080;SDS011;58740;50.672;18.690;2023-05-16T12:18:19;6.50;;;3.60;;
71080;SDS011;58740;50.672;18.690;2023-05-16T12:20:48;5.50;;;3.30;;
71080;SDS011;58740;50.672;18.690;2023-05-16T12:23:16;8.00;;;3.30;;
71080;SDS011;58740;50.672;18.690;2023-05-16T12:25:45;5.20;;;2.90;;
71080;SDS011;58740;50.672;18.690;2023-05-16T12:28:14;6.40;;;3.20;;
71080;SDS011;58740;50.672;18.690;2023-05-16T12:30:44;4.70;;;2.90;;
71080;SDS011;58740;50.672;18.690;2023-05-16T12:33:15;8.20;;;3.20;;
71080;SDS011;58740;50.672;18.690;2023-05-16T12:35:44;6.00;;;3.30;;
71080;SDS011;58740;50.672;18.690;2023-05-16T12:38:14;5.20;;;3.30;;
71080;SDS011;58740;50.672;18.690;2023-05-16T12:40:45;6.20;;;3.00;;
71080;SDS011;58740;50.672;18.690;2023-05-16T12:43:20;7.60;;;3.30;;
71080;SDS011;58740;50.672;18.690;2023-05-16T12:45:51;5.40;;;3.40;;
71080;SDS011;58740;50.672;18.690;2023-05-16T12:48:22;6.20;;;3.40;;
71080;SDS011;58740;50.672;18.690;2023-05-16T12:50:51;6.70;;;3.00;;
71080;SDS011;58740;50.672;18.690;2023-05-16T12:53:19;8.40;;;2.90;;
71080;SDS011;58740;50.672;18.690;2023-05-16T12:55:47;6.70;;;3.10;;
71080;SDS011;58740;50.672;18.690;2023-05-16T12:58:16;6.70;;;3.70;;
71080;SDS011;58740;50.672;18.690;2023-05-16T13:00:44;6.90;;;2.90;;
71080;SDS011;58740;50.672;18.690;2023-05-16T13:03:11;4.60;;;2.70;;
71080;SDS011;58740;50.672;18.690;2023-05-16T13:05:39;6.00;;;2.70;;
71080;SDS011;58740;50.672;18.690;2023-05-16T13:08:07;6.30;;;3.10;;
71080;SDS011;58740;50.672;18.690;2023-05-16T13:10:35;5.40;;;3.00;;
71080;SDS011;58740;50.672;18.690;2023-05-16T13:13:02;5.10;;;2.70;;
71080;SDS011;58740;50.672;18.690;2023-05-16T13:15:30;5.90;;;2.70;;
71080;SDS011;58740;50.672;18.690;2023-05-16T13:17:59;5.00;;;2.90;;
71080;SDS011;58740;50.672;18.690;2023-05-16T13:20:26;5.70;;;2.90;;
71080;SDS011;58740;50.672;18.690;2023-05-16T13:22:55;7.70;;;2.60;;
71080;SDS011;58740;50.672;18.690;2023-05-16T13:25:23;5.00;;;2.70;;
71080;SDS011;58740;50.672;18.690;2023-05-16T13:27:51;4.40;;;2.90;;
71080;SDS011;58740;50.672;18.690;2023-05-16T13:30:19;5.00;;;3.20;;
71080;SDS011;58740;50.672;18.690;2023-05-16T13:32:50;7.50;;;3.20;;
71080;SDS011;58740;50.672;18.690;2023-05-16T13:35:23;6.70;;;3.10;;
71080;SDS011;58740;50.672;18.690;2023-05-16T13:37:51;5.30;;;3.40;;
71080;SDS011;58740;50.672;18.690;2023-05-16T13:40:19;5.00;;;2.80;;
71080;SDS011;58740;50.672;18.690;2023-05-16T13:42:49;6.00;;;3.20;;
71080;SDS011;58740;50.672;18.690;2023-05-16T13:45:19;5.50;;;3.20;;
71080;SDS011;58740;50.672;18.690;2023-05-16T13:47:54;6.50;;;3.20;;
71080;SDS011;58740;50.672;18.690;2023-05-16T13:50:22;5.10;;;3.30;;
71080;SDS011;58740;50.672;18.690;2023-05-16T13:53:00;5.90;;;3.20;;
71080;SDS011;58740;50.672;18.690;2023-05-16T13:55:28;7.90;;;3.00;;
71080;SDS011;58740;50.672;18.690;2023-05-16T13:57:56;5.70;;;3.20;;
71080;SDS011;58740;50.672;18.690;2023-05-16T14:00:24;5.00;;;3.00;;
71080;SDS011;58740;50.672;18.690;2023-05-16T14:03:11;5.90;;;2.90;;
71080;SDS011;58740;50.672;18.690;2023-05-16T14:05:39;5.80;;;3.30;;
71080;SDS011;58740;50.672;18.690;2023-05-16T14:08:07;5.90;;;3.10;;
71080;SDS011;58740;50.672;18.690;2023-05-16T14:10:35;5.40;;;2.90;;
71080;SDS011;58740;50.672;18.690;2023-05-16T14:13:02;4.90;;;2.80;;
71080;SDS011;58740;50.672;18.690;2023-05-16T14:15:30;5.10;;;2.70;;
71080;SDS011;58740;50.672;18.690;2023-05-16T14:17:58;6.20;;;3.30;;
71080;SDS011;58740;50.672;18.690;2023-05-16T14:20:26;9.90;;;3.80;;
71080;SDS011;58740;50.672;18.690;2023-05-16T14:22:54;5.00;;;3.20;;
71080;SDS011;58740;50.672;18.690;2023-05-16T14:25:21;5.80;;;3.10;;
71080;SDS011;58740;50.672;18.690;2023-05-16T14:27:49;8.10;;;3.40;;
71080;SDS011;58740;50.672;18.690;2023-05-16T14:30:18;5.90;;;3.60;;
71080;SDS011;58740;50.672;18.690;2023-05-16T14:32:45;5.40;;;3.20;;
71080;SDS011;58740;50.672;18.690;2023-05-16T14:35:13;5.90;;;3.60;;
71080;SDS011;58740;50.672;18.690;2023-05-16T14:37:41;5.80;;;3.40;;
71080;SDS011;58740;50.672;18.690;2023-05-16T14:40:09;9.70;;;5.20;;
71080;SDS011;58740;50.672;18.690;2023-05-16T14:42:37;7.90;;;3.90;;
71080;SDS011;58740;50.672;18.690;2023-05-16T14:45:05;6.70;;;3.60;;
71080;SDS011;58740;50.672;18.690;2023-05-16T14:47:33;6.90;;;4.00;;
71080;SDS011;58740;50.672;18.690;2023-05-16T14:50:02;7.00;;;3.60;;
71080;SDS011;58740;50.672;18.690;2023-05-16T14:52:30;6.20;;;4.10;;
71080;SDS011;58740;50.672;18.690;2023-05-16T14:54:58;6.30;;;3.90;;
71080;SDS011;58740;50.672;18.690;2023-05-16T14:57:25;7.30;;;3.60;;